Time;durP1;ratioP1;P1;durP2;ratioP2;P2;SDS_P1;SDS_P2;PMS_P1;PMS_P2;Temp;Humidity;BMP_temperature;BMP_pressure;BME280_temperature;BME280_humidity;BME280_pressure;Samples;Min_cycle;Max_cycle;Signal;HPM_P1;HPM_P2
2021/12/06 05:00:19;;;;;;;27.87;13.67;;;3.50;99.70;;;;;;5070643;28;20173;-63
2021/12/06 05:02:47;;;;;;;30.53;13.67;;;3.40;99.70;;;;;;5070926;28;20643;-63
2021/12/06 05:05:17;;;;;;;25.87;12.83;;;3.40;99.70;;;;;;5061668;28;20827;-62
2021/12/06 05:07:49;;;;;;;27.47;13.77;;;3.60;99.70;;;;;;5052781;28;20800;-63
2021/12/06 05:10:17;;;;;;;29.80;13.23;;;3.70;99.70;;;;;;5052579;28;20451;-62
2021/12/06 05:12:45;;;;;;;30.30;14.10;;;3.60;99.70;;;;;;5065549;28;20477;-62
2021/12/06 05:15:14;;;;;;;29.30;13.40;;;3.70;99.70;;;;;;5072000;28;20496;-61
2021/12/06 05:17:44;;;;;;;29.63;14.73;;;3.60;99.70;;;;;;5072606;28;20447;-61
2021/12/06 05:20:12;;;;;;;29.90;13.77;;;3.50;99.70;;;;;;5072584;28;20447;-60
2021/12/06 05:22:39;;;;;;;34.57;15.23;;;3.40;99.70;;;;;;5059213;28;20888;-62
2021/12/06 05:25:07;;;;;;;30.23;14.57;;;3.20;99.70;;;;;;5052048;28;20447;-60
2021/12/06 05:27:34;;;;;;;29.87;14.00;;;3.10;99.70;;;;;;5052433;28;20934;-63
2021/12/06 05:30:03;;;;;;;29.43;13.90;;;3.10;99.70;;;;;;5052238;28;20875;-60
2021/12/06 05:32:35;;;;;;;30.17;13.67;;;3.50;99.70;;;;;;5044386;28;20488;-62
2021/12/06 05:35:06;;;;;;;29.17;13.50;;;3.50;99.70;;;;;;5047303;28;20461;-60
2021/12/06 05:37:36;;;;;;;28.23;12.47;;;3.60;99.70;;;;;;5041225;28;20484;-63
2021/12/06 05:40:05;;;;;;;30.67;14.00;;;3.70;99.70;;;;;;5048927;28;20448;-63
2021/12/06 05:42:32;;;;;;;27.73;14.13;;;3.70;99.70;;;;;;5049764;28;21095;-64
2021/12/06 05:44:58;;;;;;;31.77;14.37;;;3.70;99.70;;;;;;5045481;28;20463;-64
2021/12/06 05:47:25;;;;;;;35.20;14.90;;;3.80;99.70;;;;;;5050789;28;20933;-63
2021/12/06 05:49:53;;;;;;;33.83;14.93;;;3.60;99.70;;;;;;5054819;28;20452;-64
2021/12/06 05:52:21;;;;;;;30.67;13.87;;;3.50;99.70;;;;;;5053983;28;20455;-61
2021/12/06 05:54:48;;;;;;;26.70;12.70;;;3.70;99.70;;;;;;5047479;28;20460;-60
2021/12/06 05:57:15;;;;;;;33.17;14.20;;;3.90;99.70;;;;;;5041627;28;20487;-63
2021/12/06 05:59:43;;;;;;;35.23;15.30;;;3.80;99.70;;;;;;5048770;28;20523;-61
2021/12/06 06:02:11;;;;;;;31.93;14.80;;;3.70;99.70;;;;;;5040462;28;20479;-63
2021/12/06 06:04:38;;;;;;;32.00;14.27;;;3.80;99.70;;;;;;5050982;28;20893;-64
2021/12/06 06:07:07;;;;;;;34.00;15.30;;;3.90;99.70;;;;;;5042683;28;20978;-62
2021/12/06 06:09:34;;;;;;;29.23;13.93;;;3.80;99.70;;;;;;5050075;28;20482;-63
2021/12/06 06:12:03;;;;;;;33.67;16.27;;;3.70;99.70;;;;;;5049423;28;20517;-60
2021/12/06 06:14:31;;;;;;;37.20;15.97;;;3.80;99.70;;;;;;5049974;28;20555;-63
2021/12/06 06:17:07;;;;;;;48.50;24.23;;;3.50;99.70;;;;;;5051195;28;20570;-60
2021/12/06 06:19:34;;;;;;;46.00;21.17;;;3.20;99.70;;;;;;5051457;28;20454;-62
2021/12/06 06:22:00;;;;;;;34.80;17.03;;;3.10;99.70;;;;;;5050929;28;20468;-64
2021/12/06 06:24:28;;;;;;;38.50;16.77;;;3.10;99.70;;;;;;5050438;28;20498;-63
2021/12/06 06:26:55;;;;;;;37.43;16.97;;;3.00;99.70;;;;;;5051195;28;20935;-62
2021/12/06 06:29:22;;;;;;;38.20;16.90;;;2.90;99.70;;;;;;5051446;28;20451;-64
2021/12/06 06:31:49;;;;;;;37.00;16.80;;;2.90;99.70;;;;;;5050984;28;20468;-63
2021/12/06 06:34:15;;;;;;;38.30;17.10;;;3.00;99.70;;;;;;5051553;28;20443;-62
2021/12/06 06:36:42;;;;;;;37.83;16.77;;;3.00;99.70;;;;;;5050204;28;21006;-64
2021/12/06 06:39:10;;;;;;;34.57;15.20;;;3.10;99.70;;;;;;5051344;28;20505;-63
2021/12/06 06:41:38;;;;;;;35.93;16.20;;;3.60;99.70;;;;;;5051207;28;20527;-61
2021/12/06 06:44:06;;;;;;;35.03;14.93;;;3.70;99.70;;;;;;5050594;28;20947;-63
2021/12/06 06:46:33;;;;;;;38.50;16.60;;;4.00;99.70;;;;;;5050747;28;20966;-63
2021/12/06 06:49:00;;;;;;;37.83;16.23;;;4.10;99.70;;;;;;5051169;28;20451;-64
2021/12/06 06:51:28;;;;;;;36.13;16.63;;;3.90;99.70;;;;;;5050292;28;20936;-62
2021/12/06 06:53:55;;;;;;;39.10;16.17;;;3.80;99.70;;;;;;5050977;28;20448;-57
2021/12/06 06:56:22;;;;;;;35.50;16.90;;;3.90;99.70;;;;;;5050695;28;20552;-61
2021/12/06 06:58:51;;;;;;;39.07;16.23;;;3.90;99.70;;;;;;5051283;28;20959;-63
2021/12/06 07:01:18;;;;;;;34.30;16.27;;;3.60;99.70;;;;;;5050836;28;20527;-63
2021/12/06 07:03:45;;;;;;;38.60;16.90;;;3.70;99.70;;;;;;5050988;28;20631;-63
2021/12/06 07:06:11;;;;;;;43.47;18.40;;;3.50;99.70;;;;;;5050579;28;20436;-63
2021/12/06 07:08:38;;;;;;;39.63;17.33;;;3.50;99.70;;;;;;5050976;28;20443;-62
2021/12/06 07:11:06;;;;;;;40.53;17.07;;;3.50;99.70;;;;;;5050817;28;20498;-61
2021/12/06 07:13:37;;;;;;;41.90;17.90;;;3.50;99.70;;;;;;5050870;28;20468;-61
2021/12/06 07:16:06;;;;;;;38.97;15.87;;;3.70;99.70;;;;;;5050485;28;20502;-63
2021/12/06 07:18:33;;;;;;;39.70;16.33;;;3.60;99.70;;;;;;5051015;28;20448;-60
2021/12/06 07:21:00;;;;;;;41.53;16.77;;;3.60;99.70;;;;;;5050723;28;20455;-63
2021/12/06 07:23:27;;;;;;;41.03;16.30;;;3.70;99.70;;;;;;5050676;28;20525;-59
2021/12/06 07:25:53;;;;;;;40.37;18.40;;;3.60;99.70;;;;;;5050493;28;20448;-62
2021/12/06 07:28:20;;;;;;;41.63;16.27;;;3.40;99.70;;;;;;5046186;28;20966;-63
2021/12/06 07:30:47;;;;;;;40.70;16.77;;;3.40;99.70;;;;;;5050519;28;20477;-62
2021/12/06 07:33:15;;;;;;;36.77;14.70;;;3.50;99.70;;;;;;5109957;22;20490;-64
2021/12/06 07:35:42;;;;;;;44.90;17.03;;;3.70;99.70;;;;;;5072512;28;20795;-63
2021/12/06 07:38:09;;;;;;;40.17;15.80;;;3.50;99.70;;;;;;5058885;28;21006;-64
2021/12/06 07:40:36;;;;;;;35.03;14.90;;;3.30;99.70;;;;;;5054531;28;20439;-65
2021/12/06 07:43:03;;;;;;;39.60;15.57;;;3.40;99.70;;;;;;5053838;28;20478;-65
2021/12/06 07:45:30;;;;;;;42.37;16.43;;;3.40;99.70;;;;;;5054099;28;20452;-65
2021/12/06 07:47:57;;;;;;;45.13;17.47;;;3.60;99.70;;;;;;5055448;28;20823;-64
2021/12/06 07:50:25;;;;;;;43.73;16.73;;;3.50;99.70;;;;;;5054528;28;20444;-64
2021/12/06 07:52:53;;;;;;;42.73;15.97;;;3.40;99.70;;;;;;5054467;28;20493;-62
2021/12/06 07:55:24;;;;;;;44.07;17.10;;;3.20;99.70;;;;;;5053874;28;20450;-63
2021/12/06 07:57:52;;;;;;;38.97;16.50;;;3.30;99.70;;;;;;5054216;28;20605;-64
2021/12/06 08:00:23;;;;;;;40.00;16.07;;;3.80;99.70;;;;;;5054206;28;20869;-65
2021/12/06 08:02:50;;;;;;;37.67;15.90;;;3.70;99.70;;;;;;5055926;28;20463;-64
2021/12/06 08:05:33;;;;;;;47.00;18.47;;;3.90;99.70;;;;;;5054668;28;20440;-66
2021/12/06 08:08:04;;;;;;;41.10;15.83;;;3.80;99.70;;;;;;5053920;28;20444;-65
2021/12/06 08:10:32;;;;;;;58.10;23.27;;;3.80;99.70;;;;;;5053923;28;20448;-64
2021/12/06 08:12:59;;;;;;;47.50;20.30;;;3.50;99.70;;;;;;5053901;28;20844;-64
2021/12/06 08:15:26;;;;;;;46.10;17.83;;;3.50;99.70;;;;;;5053610;28;20506;-63
2021/12/06 08:17:53;;;;;;;44.37;17.27;;;3.40;99.70;;;;;;5053679;28;20861;-63
2021/12/06 08:20:19;;;;;;;40.97;17.00;;;3.30;99.70;;;;;;5053782;28;20701;-63
2021/12/06 08:22:46;;;;;;;42.90;18.63;;;3.40;99.70;;;;;;5054234;28;20521;-64
2021/12/06 08:25:15;;;;;;;39.13;15.70;;;3.60;99.70;;;;;;5053411;28;20447;-63
2021/12/06 08:27:43;;;;;;;42.77;15.40;;;3.60;99.70;;;;;;5055496;28;20443;-65
2021/12/06 08:30:13;;;;;;;45.80;16.50;;;3.70;99.70;;;;;;5073539;28;20443;-64
2021/12/06 08:32:40;;;;;;;39.77;16.10;;;3.70;99.70;;;;;;5073196;28;20443;-63
2021/12/06 08:35:07;;;;;;;42.60;17.20;;;3.50;99.70;;;;;;5073046;28;20501;-64
2021/12/06 08:37:34;;;;;;;53.17;21.30;;;3.40;99.70;;;;;;5073194;28;20481;-64
2021/12/06 08:40:01;;;;;;;43.70;14.73;;;3.30;99.70;;;;;;5073398;28;20442;-64
2021/12/06 08:42:29;;;;;;;38.43;15.43;;;3.70;99.70;;;;;;5072696;28;21051;-63
2021/12/06 08:44:56;;;;;;;39.53;15.73;;;3.80;99.70;;;;;;5073166;28;20476;-61
2021/12/06 08:47:24;;;;;;;55.93;23.27;;;4.00;99.70;;;;;;5072512;28;20439;-64
2021/12/06 08:49:52;;;;;;;39.97;16.10;;;3.70;99.70;;;;;;5073217;28;20454;-63
2021/12/06 08:52:19;;;;;;;38.53;16.70;;;4.00;99.70;;;;;;5072840;28;20856;-64
2021/12/06 08:54:46;;;;;;;39.33;15.47;;;3.80;99.70;;;;;;5072874;28;20936;-63
2021/12/06 08:57:13;;;;;;;33.57;13.80;;;3.70;99.70;;;;;;5072974;28;20532;-64
2021/12/06 08:59:41;;;;;;;36.60;14.37;;;3.70;99.70;;;;;;5072949;28;20503;-64
2021/12/06 09:02:08;;;;;;;36.77;14.90;;;3.80;99.70;;;;;;5073054;28;20446;-66
2021/12/06 09:04:39;;;;;;;39.23;16.37;;;3.80;99.70;;;;;;5072425;28;20512;-63
2021/12/06 09:07:11;;;;;;;40.27;16.67;;;3.80;99.70;;;;;;5072871;28;20431;-64
2021/12/06 09:09:38;;;;;;;36.17;16.27;;;3.80;99.70;;;;;;5072742;28;20586;-63
2021/12/06 09:12:05;;;;;;;35.27;14.37;;;4.00;99.70;;;;;;5072783;28;20811;-64
2021/12/06 09:14:32;;;;;;;36.87;13.60;;;3.90;99.70;;;;;;5072317;28;20844;-64
2021/12/06 09:17:00;;;;;;;38.50;15.47;;;4.10;99.70;;;;;;5072589;28;20907;-64
2021/12/06 09:19:27;;;;;;;38.40;14.40;;;4.00;99.70;;;;;;5072573;28;20584;-63
2021/12/06 09:21:53;;;;;;;32.97;13.80;;;3.90;99.70;;;;;;5072408;28;20443;-65
2021/12/06 09:24:20;;;;;;;35.30;14.53;;;4.00;99.70;;;;;;5072484;28;20470;-64
2021/12/06 09:26:48;;;;;;;36.63;14.33;;;4.10;99.70;;;;;;5072461;28;20435;-64
2021/12/06 09:29:16;;;;;;;42.30;18.57;;;4.10;99.70;;;;;;5071482;28;20462;-64
2021/12/06 09:31:43;;;;;;;36.90;15.03;;;4.10;99.70;;;;;;5072217;28;20447;-65
2021/12/06 09:34:12;;;;;;;37.17;13.30;;;4.10;99.70;;;;;;5071830;28;20486;-60
2021/12/06 09:36:38;;;;;;;35.73;13.13;;;4.30;99.70;;;;;;5071649;28;20451;-65
2021/12/06 09:39:06;;;;;;;35.13;13.17;;;4.40;99.70;;;;;;5072204;28;20447;-64
2021/12/06 09:41:34;;;;;;;35.13;13.77;;;4.40;99.70;;;;;;5072246;28;20862;-65
2021/12/06 09:44:04;;;;;;;39.97;16.10;;;4.50;99.70;;;;;;5071556;28;20505;-64
2021/12/06 09:46:35;;;;;;;38.20;14.87;;;4.30;99.70;;;;;;5071792;28;20447;-63
2021/12/06 09:49:05;;;;;;;37.60;15.93;;;4.20;99.70;;;;;;5071952;28;20447;-64
2021/12/06 09:51:34;;;;;;;34.10;14.27;;;4.20;99.70;;;;;;5071594;28;20443;-64
2021/12/06 09:54:01;;;;;;;32.87;13.53;;;4.30;99.70;;;;;;5071777;28;20467;-64
2021/12/06 09:56:31;;;;;;;34.10;13.30;;;4.30;99.70;;;;;;5071568;28;20449;-65
2021/12/06 09:59:00;;;;;;;31.23;12.40;;;4.40;99.70;;;;;;5071894;28;20435;-65
2021/12/06 10:01:30;;;;;;;35.10;13.57;;;4.30;99.70;;;;;;5071711;28;20446;-64
2021/12/06 10:03:58;;;;;;;30.70;11.50;;;4.20;99.70;;;;;;5071423;28;20836;-64
2021/12/06 10:06:27;;;;;;;26.33;11.37;;;4.20;99.70;;;;;;5057235;28;20534;-64
2021/12/06 10:08:57;;;;;;;25.10;10.93;;;4.20;99.70;;;;;;5051579;28;20460;-64
2021/12/06 10:11:25;;;;;;;26.60;11.20;;;4.50;99.70;;;;;;5051801;28;20794;-64
2021/12/06 10:13:53;;;;;;;31.20;12.53;;;4.90;99.70;;;;;;5051407;28;20463;-63
2021/12/06 10:16:21;;;;;;;29.60;12.03;;;4.80;99.70;;;;;;5051311;28;20792;-64
2021/12/06 10:18:48;;;;;;;29.73;12.20;;;5.00;99.70;;;;;;5051362;28;20486;-64
2021/12/06 10:21:16;;;;;;;24.87;11.17;;;5.20;99.70;;;;;;5051350;28;20456;-64
2021/12/06 10:23:43;;;;;;;26.07;10.47;;;5.00;99.70;;;;;;5051191;28;20463;-64
2021/12/06 10:26:13;;;;;;;23.47;10.20;;;4.90;99.70;;;;;;5051045;28;20444;-64
2021/12/06 10:28:43;;;;;;;21.13;10.00;;;4.90;99.70;;;;;;5051235;28;20442;-64
2021/12/06 10:31:13;;;;;;;25.27;10.07;;;4.90;99.70;;;;;;5051297;28;21024;-64
2021/12/06 10:33:46;;;;;;;23.20;10.20;;;4.80;99.70;;;;;;5070334;28;20471;-64
2021/12/06 10:36:17;;;;;;;22.63;9.27;;;4.70;99.70;;;;;;5070354;28;20447;-64
2021/12/06 10:38:47;;;;;;;26.67;9.83;;;4.70;99.70;;;;;;5071445;28;20482;-64
2021/12/06 10:41:19;;;;;;;26.87;9.90;;;4.60;99.70;;;;;;5071496;28;20461;-64
2021/12/06 10:43:52;;;;;;;26.30;10.87;;;5.10;99.70;;;;;;5070846;28;20459;-64
2021/12/06 10:46:19;;;;;;;24.47;10.37;;;5.10;99.70;;;;;;5070971;28;20533;-65
2021/12/06 10:48:47;;;;;;;24.63;9.83;;;4.90;99.70;;;;;;5071078;28;20960;-64
2021/12/06 10:51:18;;;;;;;26.90;11.20;;;5.30;99.70;;;;;;5070867;28;20534;-63
2021/12/06 10:53:56;;;;;;;23.60;10.27;;;5.20;99.70;;;;;;5070995;28;20467;-63
2021/12/06 10:56:32;;;;;;;24.17;10.33;;;5.10;99.70;;;;;;5070598;28;20934;-64
2021/12/06 10:59:03;;;;;;;23.20;9.20;;;5.20;99.70;;;;;;5071015;28;20486;-64
2021/12/06 11:01:32;;;;;;;20.33;9.20;;;5.50;99.70;;;;;;5070948;28;20446;-64
2021/12/06 11:04:01;;;;;;;20.37;9.10;;;5.40;99.70;;;;;;5070940;28;20475;-64
2021/12/06 11:06:31;;;;;;;22.13;9.73;;;5.30;99.70;;;;;;5055471;28;20452;-64
2021/12/06 11:09:00;;;;;;;25.63;9.30;;;5.50;99.70;;;;;;5051914;28;20440;-64
2021/12/06 11:11:31;;;;;;;21.27;8.77;;;5.20;99.70;;;;;;5054883;28;20875;-64
2021/12/06 11:14:01;;;;;;;20.87;8.70;;;5.10;99.70;;;;;;5055044;28;20505;-65
2021/12/06 11:16:30;;;;;;;18.73;8.03;;;5.00;99.70;;;;;;5054463;28;20566;-64
2021/12/06 11:18:59;;;;;;;20.10;7.90;;;5.10;99.70;;;;;;5054698;28;20479;-63
2021/12/06 11:21:33;;;;;;;19.03;8.37;;;5.00;99.70;;;;;;5054806;28;20951;-63
2021/12/06 11:24:16;;;;;;;18.17;8.30;;;5.10;99.70;;;;;;5054357;28;20831;-63
2021/12/06 11:26:49;;;;;;;21.07;8.87;;;5.10;99.70;;;;;;5054371;28;20446;-64
2021/12/06 11:29:19;;;;;;;22.07;9.17;;;5.00;99.70;;;;;;5054747;28;20869;-64
2021/12/06 11:31:54;;;;;;;34.87;15.47;;;4.90;99.70;;;;;;5054538;28;20509;-63
2021/12/06 11:34:20;;;;;;;29.00;10.43;;;4.90;99.70;;;;;;5056600;28;20466;-64
2021/12/06 11:36:48;;;;;;;22.47;9.20;;;4.90;99.70;;;;;;5067950;28;20436;-64
2021/12/06 11:39:20;;;;;;;23.57;10.03;;;5.30;99.70;;;;;;5054496;28;20479;-64
2021/12/06 11:41:51;;;;;;;23.90;10.17;;;5.40;99.70;;;;;;5054313;28;20463;-64
2021/12/06 11:44:22;;;;;;;26.20;11.30;;;5.60;99.70;;;;;;5053985;28;20463;-65
2021/12/06 11:46:56;;;;;;;27.77;11.30;;;5.70;99.70;;;;;;5054403;28;20454;-64
2021/12/06 11:49:29;;;;;;;19.60;9.03;;;5.60;99.70;;;;;;5054522;28;20444;-64
2021/12/06 11:51:56;;;;;;;22.10;10.10;;;5.60;99.70;;;;;;5054169;28;20538;-64
2021/12/06 11:54:22;;;;;;;22.83;9.60;;;5.70;99.70;;;;;;5053578;28;21028;-64
2021/12/06 11:56:51;;;;;;;22.47;9.93;;;5.60;99.70;;;;;;5054157;28;20451;-65
2021/12/06 11:59:19;;;;;;;27.53;10.33;;;5.50;99.70;;;;;;5053976;28;20573;-64
2021/12/06 12:01:49;;;;;;;23.93;10.30;;;5.60;99.70;;;;;;5053398;28;20466;-64
2021/12/06 12:04:18;;;;;;;18.93;9.33;;;5.60;99.70;;;;;;5054238;28;20522;-65
2021/12/06 12:06:47;;;;;;;20.17;8.90;;;5.60;99.70;;;;;;5053647;28;20435;-63
2021/12/06 12:09:17;;;;;;;21.30;9.50;;;5.50;99.70;;;;;;5071711;28;20443;-65
2021/12/06 12:11:57;;;;;;;19.00;7.50;;;5.50;99.70;;;;;;5073670;28;20443;-65
2021/12/06 12:14:29;;;;;;;18.17;8.03;;;5.60;99.70;;;;;;5073612;28;20520;-65
2021/12/06 12:16:59;;;;;;;17.70;8.07;;;5.80;99.70;;;;;;5073797;28;20453;-64
2021/12/06 12:19:26;;;;;;;21.10;8.70;;;5.80;99.70;;;;;;5073775;28;20470;-63
2021/12/06 12:21:52;;;;;;;18.10;8.40;;;5.80;99.70;;;;;;5072440;28;20443;-64
2021/12/06 12:24:20;;;;;;;19.70;8.97;;;5.60;99.70;;;;;;5073762;28;20474;-64
2021/12/06 12:26:57;;;;;;;19.50;8.70;;;5.50;99.70;;;;;;5073499;28;20445;-65
2021/12/06 12:29:27;;;;;;;17.30;8.47;;;5.30;99.70;;;;;;5073457;28;20463;-64
2021/12/06 12:31:57;;;;;;;17.77;7.73;;;5.20;99.70;;;;;;5073566;28;20803;-65
2021/12/06 12:34:26;;;;;;;24.70;9.80;;;5.10;99.70;;;;;;5073256;28;20550;-64
2021/12/06 12:36:53;;;;;;;21.00;9.23;;;4.80;99.70;;;;;;5073075;28;20957;-66
2021/12/06 12:39:21;;;;;;;21.43;9.20;;;4.70;99.70;;;;;;5073421;28;20477;-65
2021/12/06 12:41:51;;;;;;;16.67;8.07;;;4.60;99.70;;;;;;5073281;28;20450;-62
2021/12/06 12:44:18;;;;;;;15.77;7.00;;;4.50;99.70;;;;;;5072898;28;20458;-64
2021/12/06 12:46:46;;;;;;;17.70;7.43;;;4.40;99.70;;;;;;5073434;28;20454;-63
2021/12/06 12:49:15;;;;;;;20.03;8.17;;;4.60;99.70;;;;;;5073403;28;20477;-63
2021/12/06 12:51:47;;;;;;;17.30;8.00;;;4.50;99.70;;;;;;5073020;28;20447;-66
2021/12/06 12:54:18;;;;;;;17.63;7.97;;;4.50;99.70;;;;;;5073202;28;20466;-63
2021/12/06 12:56:46;;;;;;;20.93;7.63;;;4.50;99.70;;;;;;5072806;28;20880;-64
2021/12/06 12:59:43;;;;;;;18.60;8.03;;;4.50;99.70;;;;;;5072985;28;20528;-63
2021/12/06 13:02:25;;;;;;;17.03;8.20;;;4.50;99.70;;;;;;5056118;28;20451;-64
2021/12/06 13:05:15;;;;;;;18.37;7.50;;;4.70;99.70;;;;;;5072908;28;20529;-65
2021/12/06 13:08:02;;;;;;;15.90;6.80;;;4.80;99.70;;;;;;5067819;28;20447;-65
2021/12/06 13:10:45;;;;;;;16.50;7.97;;;5.20;99.70;;;;;;5052925;28;20440;-67
2021/12/06 13:13:18;;;;;;;14.60;7.53;;;5.40;99.70;;;;;;5051065;28;20482;-64
2021/12/06 13:15:54;;;;;;;18.47;7.80;;;5.40;99.70;;;;;;5052424;28;20543;-65
2021/12/06 13:18:57;;;;;;;18.50;7.63;;;5.10;99.70;;;;;;5052598;28;20506;-65
2021/12/06 13:21:37;;;;;;;17.73;7.87;;;5.00;99.70;;;;;;5052349;28;20451;-64
2021/12/06 13:24:29;;;;;;;19.70;7.17;;;5.00;99.70;;;;;;5052531;28;20469;-65
2021/12/06 13:26:57;;;;;;;18.30;8.10;;;5.10;99.70;;;;;;5052542;28;20447;-66
2021/12/06 13:29:27;;;;;;;19.17;8.40;;;5.50;99.70;;;;;;5052490;28;20443;-66
2021/12/06 13:31:54;;;;;;;18.00;7.97;;;5.40;99.70;;;;;;5051964;28;20553;-65
2021/12/06 13:34:25;;;;;;;21.47;9.20;;;5.30;99.70;;;;;;5053866;28;20881;-56
2021/12/06 13:36:55;;;;;;;21.77;9.60;;;5.20;99.70;;;;;;5053039;28;20447;-60
2021/12/06 13:39:46;;;;;;;17.20;7.93;;;5.20;99.70;;;;;;5068565;28;20482;-60
2021/12/06 13:42:15;;;;;;;20.20;7.80;;;5.10;99.70;;;;;;5052818;28;20459;-59
2021/12/06 13:44:46;;;;;;;20.70;9.60;;;5.10;99.70;;;;;;5072770;28;20463;-59
2021/12/06 13:47:16;;;;;;;21.00;10.30;;;5.00;99.70;;;;;;5073201;28;20470;-63
2021/12/06 13:49:56;;;;;;;19.67;9.10;;;5.00;99.70;;;;;;5072450;28;20439;-63
2021/12/06 13:52:37;;;;;;;19.50;7.90;;;5.00;99.70;;;;;;5072076;28;20447;-61
2021/12/06 13:55:22;;;;;;;17.30;7.80;;;5.10;99.70;;;;;;5072064;28;20445;-63
2021/12/06 13:57:51;;;;;;;16.03;7.50;;;5.20;99.70;;;;;;5071926;28;20822;-62
2021/12/06 14:00:24;;;;;;;16.90;7.30;;;5.20;99.70;;;;;;5071962;28;20443;-63
2021/12/06 14:02:52;;;;;;;20.30;8.90;;;5.40;99.70;;;;;;5071500;28;20509;-63
2021/12/06 14:05:21;;;;;;;14.77;7.70;;;5.40;99.70;;;;;;5070741;28;20662;-62
2021/12/06 14:07:49;;;;;;;19.53;9.60;;;5.40;99.70;;;;;;5065349;28;20986;-64
2021/12/06 14:10:16;;;;;;;20.77;9.17;;;5.50;99.70;;;;;;5051790;28;20445;-64
2021/12/06 14:12:44;;;;;;;15.67;6.07;;;5.70;99.70;;;;;;5060845;28;20473;-63
2021/12/06 14:15:19;;;;;;;18.37;7.50;;;5.90;99.70;;;;;;5070947;28;20573;-63
2021/12/06 14:17:47;;;;;;;20.43;8.53;;;5.80;99.70;;;;;;5071486;28;20514;-63
2021/12/06 14:20:15;;;;;;;17.93;8.00;;;5.90;99.70;;;;;;5071595;28;20475;-63
2021/12/06 14:22:44;;;;;;;18.53;7.73;;;5.90;99.70;;;;;;5071474;28;20550;-63
2021/12/06 14:25:13;;;;;;;15.97;7.37;;;6.00;99.70;;;;;;5071054;28;20700;-60
2021/12/06 14:27:41;;;;;;;13.97;6.10;;;5.90;99.70;;;;;;5071020;28;20829;-62
2021/12/06 14:30:17;;;;;;;12.03;4.57;;;5.80;99.70;;;;;;5071222;28;20938;-61
2021/12/06 14:32:48;;;;;;;8.53;4.20;;;5.90;99.70;;;;;;5071500;28;20466;-60
2021/12/06 14:35:15;;;;;;;9.53;4.70;;;6.00;99.70;;;;;;5071773;28;20520;-57
2021/12/06 14:37:43;;;;;;;7.97;4.40;;;6.00;99.70;;;;;;5071508;28;20446;-65
2021/12/06 14:40:11;;;;;;;6.90;3.83;;;6.00;99.70;;;;;;5071320;28;21081;-63
2021/12/06 14:42:41;;;;;;;7.10;3.90;;;6.00;99.70;;;;;;5071056;28;20478;-63
2021/12/06 14:45:10;;;;;;;7.57;3.70;;;5.90;99.70;;;;;;5070520;28;20997;-60
2021/12/06 14:47:40;;;;;;;12.70;5.20;;;5.80;99.70;;;;;;5071957;28;20467;-59
2021/12/06 14:50:14;;;;;;;8.93;5.13;;;5.60;99.70;;;;;;5071095;28;20539;-62
2021/12/06 14:52:45;;;;;;;9.80;5.27;;;5.60;99.70;;;;;;5070455;28;20451;-62
2021/12/06 14:55:41;;;;;;;10.73;5.27;;;5.40;99.70;;;;;;5070410;28;20453;-62
2021/12/06 14:58:14;;;;;;;16.80;6.30;;;5.30;99.70;;;;;;5069206;28;20965;-62
2021/12/06 15:00:43;;;;;;;13.03;7.17;;;5.10;99.70;;;;;;5071062;28;20965;-57
2021/12/06 15:03:13;;;;;;;14.80;6.77;;;4.90;99.70;;;;;;5071911;28;20482;-59
2021/12/06 15:05:43;;;;;;;18.60;7.70;;;4.90;99.70;;;;;;5070179;28;20442;-58
2021/12/06 15:08:14;;;;;;;12.27;5.80;;;4.60;99.70;;;;;;5071632;28;20518;-62
2021/12/06 15:10:43;;;;;;;15.43;7.17;;;4.60;99.70;;;;;;5071473;28;20447;-61
2021/12/06 15:13:10;;;;;;;14.47;6.83;;;4.50;99.70;;;;;;5071019;28;20845;-59
2021/12/06 15:15:40;;;;;;;15.13;7.40;;;4.40;99.70;;;;;;5071566;28;20449;-59
2021/12/06 15:18:10;;;;;;;16.40;6.90;;;4.30;99.70;;;;;;5071035;28;20469;-63
2021/12/06 15:20:39;;;;;;;13.53;6.60;;;4.10;99.70;;;;;;5071780;28;20483;-62
2021/12/06 15:23:08;;;;;;;10.57;5.50;;;4.20;99.70;;;;;;5071386;28;20466;-60
2021/12/06 15:25:36;;;;;;;12.87;6.27;;;4.40;99.70;;;;;;5071780;28;20457;-63
2021/12/06 15:28:04;;;;;;;15.23;6.60;;;4.30;99.70;;;;;;5071045;28;20824;-61
2021/12/06 15:30:31;;;;;;;15.27;6.70;;;4.10;99.70;;;;;;5070843;28;20438;-63
2021/12/06 15:33:01;;;;;;;15.20;7.00;;;4.10;99.70;;;;;;5070387;28;20478;-61
2021/12/06 15:35:31;;;;;;;15.17;7.60;;;4.00;99.70;;;;;;5070175;28;20831;-62
2021/12/06 15:37:58;;;;;;;14.70;6.63;;;4.10;99.70;;;;;;5071146;28;20965;-59
2021/12/06 15:40:26;;;;;;;9.77;5.00;;;3.90;99.70;;;;;;5070693;28;20475;-60
2021/12/06 15:42:56;;;;;;;7.80;4.40;;;3.90;99.70;;;;;;5065905;28;20541;-60
2021/12/06 15:45:27;;;;;;;7.50;4.10;;;3.80;99.70;;;;;;5057932;28;20468;-62
2021/12/06 15:47:55;;;;;;;6.23;3.43;;;4.00;99.70;;;;;;5056750;28;20443;-58
2021/12/06 15:50:25;;;;;;;7.20;3.47;;;4.00;99.70;;;;;;5057466;28;20834;-59
2021/12/06 15:52:52;;;;;;;8.20;4.20;;;4.00;99.70;;;;;;5054544;28;20464;-61
2021/12/06 15:55:23;;;;;;;8.33;4.27;;;3.90;99.70;;;;;;5071728;28;20482;-60
2021/12/06 15:57:51;;;;;;;8.73;4.47;;;3.70;99.70;;;;;;5074518;28;20453;-59
2021/12/06 16:00:23;;;;;;;8.90;4.10;;;3.60;99.70;;;;;;5073983;28;20483;-60
2021/12/06 16:02:52;;;;;;;6.70;3.63;;;4.00;99.70;;;;;;5074562;28;20976;-58
2021/12/06 16:05:21;;;;;;;7.30;3.50;;;4.00;99.70;;;;;;5073241;28;20455;-60
2021/12/06 16:07:52;;;;;;;7.00;3.63;;;4.00;99.70;;;;;;5068174;28;20438;-57
2021/12/06 16:10:20;;;;;;;14.83;4.73;;;3.90;99.70;;;;;;5063361;28;20443;-61
2021/12/06 16:12:52;;;;;;;13.10;5.33;;;3.80;99.70;;;;;;5068438;28;20450;-60
2021/12/06 16:15:26;;;;;;;7.97;3.70;;;3.70;99.70;;;;;;5072734;28;20447;-58
2021/12/06 16:17:57;;;;;;;9.40;4.03;;;3.70;99.70;;;;;;5072878;28;20443;-62
2021/12/06 16:20:24;;;;;;;8.03;4.40;;;3.80;99.70;;;;;;5073984;28;20478;-60
2021/12/06 16:22:52;;;;;;;7.80;3.80;;;3.60;99.70;;;;;;5073867;28;20869;-60
2021/12/06 16:25:19;;;;;;;7.93;3.73;;;3.60;99.70;;;;;;5072792;28;20543;-60
2021/12/06 16:27:56;;;;;;;10.10;3.70;;;3.40;99.70;;;;;;5074212;28;20446;-58
2021/12/06 16:30:24;;;;;;;6.93;3.50;;;3.20;99.70;;;;;;5071397;28;20442;-59
2021/12/06 16:32:51;;;;;;;6.73;3.60;;;3.00;99.70;;;;;;5074370;28;20485;-59
2021/12/06 16:35:18;;;;;;;6.93;3.67;;;3.00;99.70;;;;;;5074235;28;20446;-57
2021/12/06 16:37:45;;;;;;;9.57;3.97;;;2.90;99.70;;;;;;5074517;28;20465;-60
2021/12/06 16:40:12;;;;;;;9.60;4.30;;;3.00;99.70;;;;;;5073363;28;20478;-60
2021/12/06 16:42:48;;;;;;;6.57;3.20;;;2.90;99.70;;;;;;5072752;28;20473;-60
2021/12/06 16:45:17;;;;;;;6.70;3.73;;;2.90;99.70;;;;;;5072988;28;20458;-60
2021/12/06 16:47:48;;;;;;;7.10;3.93;;;2.80;99.70;;;;;;5073629;28;20446;-58
2021/12/06 16:50:17;;;;;;;8.53;3.87;;;2.80;99.70;;;;;;5072952;28;20451;-59
2021/12/06 16:52:48;;;;;;;12.93;4.60;;;2.70;99.70;;;;;;5072011;28;20996;-61
2021/12/06 16:55:17;;;;;;;7.27;4.10;;;2.60;99.70;;;;;;5073029;28;20447;-60
2021/12/06 16:57:47;;;;;;;9.90;3.70;;;2.50;99.70;;;;;;5072394;28;20462;-60
2021/12/06 17:00:18;;;;;;;7.40;3.73;;;2.30;99.70;;;;;;5069095;28;20475;-59
2021/12/06 17:02:58;;;;;;;7.83;4.40;;;2.30;99.70;;;;;;5073289;28;20868;-62
2021/12/06 17:05:28;;;;;;;12.00;4.77;;;2.30;99.70;;;;;;5052738;28;20613;-58
2021/12/06 17:08:04;;;;;;;11.40;4.80;;;2.30;99.70;;;;;;5056897;28;20447;-62
2021/12/06 17:10:33;;;;;;;13.37;4.83;;;2.30;99.70;;;;;;5072670;28;20453;-60
2021/12/06 17:13:01;;;;;;;14.37;6.97;;;2.40;99.70;;;;;;5072632;28;20455;-60
2021/12/06 17:15:31;;;;;;;17.40;7.37;;;2.40;99.70;;;;;;5072326;28;20464;-59
2021/12/06 17:18:03;;;;;;;16.00;7.23;;;2.30;99.70;;;;;;5062676;28;20455;-60
2021/12/06 17:20:32;;;;;;;15.47;7.30;;;2.30;99.70;;;;;;5071007;28;20538;-61
2021/12/06 17:23:03;;;;;;;22.17;9.90;;;2.10;99.70;;;;;;5064089;28;20516;-59
2021/12/06 17:25:33;;;;;;;45.37;15.87;;;2.10;99.70;;;;;;5071998;28;20446;-61
2021/12/06 17:28:19;;;;;;;53.20;19.03;;;2.10;99.70;;;;;;5055603;28;20563;-59
2021/12/06 17:30:50;;;;;;;57.70;20.40;;;2.00;99.70;;;;;;5071484;28;20455;-62
2021/12/06 17:33:23;;;;;;;54.13;21.27;;;2.00;99.70;;;;;;5069265;28;20478;-62
2021/12/06 17:35:52;;;;;;;47.43;20.60;;;1.90;99.70;;;;;;5065138;28;20931;-61
2021/12/06 17:38:19;;;;;;;41.67;18.50;;;1.90;99.70;;;;;;5056909;28;20942;-59
2021/12/06 17:40:46;;;;;;;34.70;15.27;;;2.00;99.70;;;;;;5066991;28;20483;-60
2021/12/06 17:43:13;;;;;;;27.77;13.40;;;1.90;99.70;;;;;;5065348;28;21046;-63
2021/12/06 17:45:41;;;;;;;20.63;11.70;;;1.90;99.70;;;;;;5063997;28;20439;-64
2021/12/06 17:48:07;;;;;;;20.83;11.43;;;1.90;99.70;;;;;;5068112;28;20456;-62
2021/12/06 17:50:36;;;;;;;18.97;9.30;;;1.90;99.70;;;;;;5084655;28;20431;-61
2021/12/06 17:53:03;;;;;;;17.93;9.23;;;1.90;99.70;;;;;;5070659;28;20981;-60
2021/12/06 17:55:30;;;;;;;17.23;8.83;;;2.00;99.70;;;;;;5063981;28;20483;-59